Fairbanks, AK

6:53 PM AKDT on April 27, 2015 (GMT -0800)
KAKFAIRB24 | | Change Station
CLOSE
Current Station
Personal Weather Station
Location: Fairbanks, AK
Elevation: 540 ft
Nearby Weather Stations

Elev 540 ft 64.81 °N, 147.70 °W | Updated 3 minutes ago

Mostly Cloudy
Mostly Cloudy
58.2 °F
Feels Like 58.2 °F
N
4.0
Wind Variable Wind from NE
Gusts 11.0 mph

Today
High -- | Low -- °F
--% Chance of Precip.
Yesterday
High -- | Low -- °F
Precip. -- in
5:32 AM 10:06 PM
Waxing Gibbous, 70% visible
Pressure 29.56 in
Visibility 25.0 miles
Clouds Few 5000 ft
Scattered Clouds 11000 ft
Mostly Cloudy 20000 ft
Dew Point 29 °F
Humidity 33%
Rainfall 0.00 in
Snow Depth Not available.
UV 1 out of 12
Pollen Not available.
Air Quality Not available.
Flu Activity Sporadic
METAR PAFB 280155Z 04012KT 25SM FEW050 SCT110 BKN200 16/M04 A2954 RMK SLP009 VIRGA SE-SW

More Conditions Fewer Conditions

Pressure 29.56 in
Visibility 25.0 miles
Clouds Few 5000 ft
Scattered Clouds 11000 ft
Mostly Cloudy 20000 ft
Dew Point 29 °F
Humidity 33%
Rainfall 0.00 in
Snow Depth Not available.
UV 1 out of 12
Pollen Not available.
Air Quality Not available.
Flu Activity Sporadic
METAR PAFB 280155Z 04012KT 25SM FEW050 SCT110 BKN200 16/M04 A2954 RMK SLP009 VIRGA SE-SW

More Conditions Fewer Conditions

10-Day Weather Forecast

Almanac

Astronomy

Apr. 27, 2015 Rise Set
Actual Time
Civil Twilight
Nautical Twilight
Astronomical Twilight
Moon
Length of Visible Light
Length of Day
Tomorrow will be .
, % of the Moon is Illuminated

Today's Extremes

State Highs State Lows

Community

WunderPhotos

Upload Photos

1,817,527 photos uploaded!

WunderBlogs® & News

Nearby

Air Quality

  Air Quality AQ Index Pollutant
Not available.

Snow Depth

Station Depth Elevation

Earthquake Activity

City Distance Mag. Time & Date
Minimum magnitude displayed is 2.5.

Coastal Water Temperatures

Place Temperature

Stations

Nearby Weather Stations

Station Location Temp. Windchill Dew Point Humidity Wind Precip. Elev Updated Type